sensor_id;sensor_type;location;lat;lon;timestamp;P1;durP1;ratioP1;P2;durP2;ratioP2
10550;SDS011;5324;50.684;3.862;2022-11-14T00:02:19;16.73;;;11.70;;
10550;SDS011;5324;50.684;3.862;2022-11-14T00:04:46;15.00;;;11.40;;
10550;SDS011;5324;50.684;3.862;2022-11-14T00:07:12;16.13;;;11.40;;
10550;SDS011;5324;50.684;3.862;2022-11-14T00:09:38;14.13;;;11.17;;
10550;SDS011;5324;50.684;3.862;2022-11-14T00:12:06;17.80;;;11.97;;
10550;SDS011;5324;50.684;3.862;2022-11-14T00:14:32;16.80;;;11.97;;
10550;SDS011;5324;50.684;3.862;2022-11-14T00:16:58;17.73;;;12.13;;
10550;SDS011;5324;50.684;3.862;2022-11-14T00:19:24;16.43;;;12.37;;
10550;SDS011;5324;50.684;3.862;2022-11-14T00:21:50;18.33;;;12.03;;
10550;SDS011;5324;50.684;3.862;2022-11-14T00:24:17;17.60;;;12.73;;
10550;SDS011;5324;50.684;3.862;2022-11-14T00:26:43;17.57;;;13.83;;
10550;SDS011;5324;50.684;3.862;2022-11-14T00:29:13;16.10;;;12.27;;
10550;SDS011;5324;50.684;3.862;2022-11-14T00:31:39;18.50;;;12.70;;
10550;SDS011;5324;50.684;3.862;2022-11-14T00:34:05;17.90;;;12.33;;
10550;SDS011;5324;50.684;3.862;2022-11-14T00:36:31;20.03;;;12.17;;
10550;SDS011;5324;50.684;3.862;2022-11-14T00:38:57;15.77;;;11.93;;
10550;SDS011;5324;50.684;3.862;2022-11-14T00:41:23;17.07;;;12.90;;
10550;SDS011;5324;50.684;3.862;2022-11-14T00:43:49;17.47;;;12.17;;
10550;SDS011;5324;50.684;3.862;2022-11-14T00:46:15;17.13;;;11.83;;
10550;SDS011;5324;50.684;3.862;2022-11-14T00:48:41;19.83;;;13.00;;
10550;SDS011;5324;50.684;3.862;2022-11-14T00:51:07;18.43;;;12.80;;
10550;SDS011;5324;50.684;3.862;2022-11-14T00:53:33;14.47;;;12.13;;
10550;SDS011;5324;50.684;3.862;2022-11-14T00:55:59;17.43;;;11.90;;
10550;SDS011;5324;50.684;3.862;2022-11-14T00:58:25;17.70;;;12.37;;
10550;SDS011;5324;50.684;3.862;2022-11-14T01:00:51;16.80;;;13.00;;
10550;SDS011;5324;50.684;3.862;2022-11-14T01:03:17;16.77;;;12.33;;
10550;SDS011;5324;50.684;3.862;2022-11-14T01:05:44;18.90;;;12.17;;
10550;SDS011;5324;50.684;3.862;2022-11-14T01:08:10;16.90;;;12.20;;
10550;SDS011;5324;50.684;3.862;2022-11-14T01:10:43;16.93;;;12.40;;
10550;SDS011;5324;50.684;3.862;2022-11-14T01:13:09;15.50;;;11.67;;
10550;SDS011;5324;50.684;3.862;2022-11-14T01:15:39;15.63;;;12.07;;
10550;SDS011;5324;50.684;3.862;2022-11-14T01:18:05;21.73;;;13.77;;
10550;SDS011;5324;50.684;3.862;2022-11-14T01:20:31;19.10;;;13.67;;
10550;SDS011;5324;50.684;3.862;2022-11-14T01:22:57;22.70;;;13.70;;
10550;SDS011;5324;50.684;3.862;2022-11-14T01:25:23;17.43;;;13.07;;
10550;SDS011;5324;50.684;3.862;2022-11-14T01:27:49;20.30;;;13.27;;
10550;SDS011;5324;50.684;3.862;2022-11-14T01:30:15;18.07;;;12.23;;
10550;SDS011;5324;50.684;3.862;2022-11-14T01:32:41;15.43;;;11.83;;
10550;SDS011;5324;50.684;3.862;2022-11-14T01:35:07;14.70;;;11.97;;
10550;SDS011;5324;50.684;3.862;2022-11-14T01:37:33;14.57;;;11.27;;
10550;SDS011;5324;50.684;3.862;2022-11-14T01:39:59;19.23;;;13.00;;
10550;SDS011;5324;50.684;3.862;2022-11-14T01:42:25;18.33;;;11.37;;
10550;SDS011;5324;50.684;3.862;2022-11-14T01:44:52;14.70;;;11.27;;
10550;SDS011;5324;50.684;3.862;2022-11-14T01:47:22;18.83;;;10.83;;
10550;SDS011;5324;50.684;3.862;2022-11-14T01:49:56;15.20;;;11.00;;
10550;SDS011;5324;50.684;3.862;2022-11-14T01:54:50;12.70;;;10.33;;
10550;SDS011;5324;50.684;3.862;2022-11-14T01:57:19;13.67;;;10.63;;
10550;SDS011;5324;50.684;3.862;2022-11-14T01:59:48;15.20;;;11.30;;
10550;SDS011;5324;50.684;3.862;2022-11-14T02:02:17;15.17;;;11.10;;
10550;SDS011;5324;50.684;3.862;2022-11-14T02:04:47;12.87;;;10.47;;
10550;SDS011;5324;50.684;3.862;2022-11-14T02:07:15;12.33;;;10.43;;
10550;SDS011;5324;50.684;3.862;2022-11-14T02:09:43;13.20;;;10.30;;
10550;SDS011;5324;50.684;3.862;2022-11-14T02:12:10;19.17;;;10.23;;
10550;SDS011;5324;50.684;3.862;2022-11-14T02:14:37;14.07;;;10.20;;
10550;SDS011;5324;50.684;3.862;2022-11-14T02:17:04;14.77;;;10.27;;
10550;SDS011;5324;50.684;3.862;2022-11-14T02:20:32;14.20;;;10.47;;
10550;SDS011;5324;50.684;3.862;2022-11-14T02:22:25;14.57;;;11.20;;
10550;SDS011;5324;50.684;3.862;2022-11-14T02:24:51;13.23;;;10.23;;
10550;SDS011;5324;50.684;3.862;2022-11-14T02:27:17;13.83;;;10.43;;
10550;SDS011;5324;50.684;3.862;2022-11-14T02:29:43;16.53;;;10.17;;
10550;SDS011;5324;50.684;3.862;2022-11-14T02:32:09;13.10;;;10.63;;
10550;SDS011;5324;50.684;3.862;2022-11-14T02:34:35;14.07;;;10.70;;
10550;SDS011;5324;50.684;3.862;2022-11-14T02:37:01;10.93;;;9.43;;
10550;SDS011;5324;50.684;3.862;2022-11-14T02:39:27;12.03;;;9.93;;
10550;SDS011;5324;50.684;3.862;2022-11-14T02:41:53;13.70;;;11.57;;
10550;SDS011;5324;50.684;3.862;2022-11-14T02:44:19;15.47;;;10.23;;
10550;SDS011;5324;50.684;3.862;2022-11-14T02:46:45;14.73;;;10.20;;
10550;SDS011;5324;50.684;3.862;2022-11-14T02:49:11;15.67;;;10.93;;
10550;SDS011;5324;50.684;3.862;2022-11-14T02:51:37;11.20;;;9.50;;
10550;SDS011;5324;50.684;3.862;2022-11-14T02:54:05;11.50;;;9.23;;
10550;SDS011;5324;50.684;3.862;2022-11-14T02:56:31;11.50;;;10.03;;
10550;SDS011;5324;50.684;3.862;2022-11-14T02:58:57;13.17;;;9.43;;
10550;SDS011;5324;50.684;3.862;2022-11-14T03:01:23;11.47;;;9.40;;
10550;SDS011;5324;50.684;3.862;2022-11-14T03:03:49;10.83;;;8.87;;
10550;SDS011;5324;50.684;3.862;2022-11-14T03:06:15;11.13;;;9.00;;
10550;SDS011;5324;50.684;3.862;2022-11-14T03:08:41;10.90;;;8.83;;
10550;SDS011;5324;50.684;3.862;2022-11-14T03:11:07;11.70;;;9.57;;
10550;SDS011;5324;50.684;3.862;2022-11-14T03:13:33;15.43;;;10.30;;
10550;SDS011;5324;50.684;3.862;2022-11-14T03:16:09;14.47;;;9.80;;
10550;SDS011;5324;50.684;3.862;2022-11-14T03:18:36;12.97;;;9.50;;
10550;SDS011;5324;50.684;3.862;2022-11-14T03:21:09;11.47;;;9.10;;
10550;SDS011;5324;50.684;3.862;2022-11-14T03:23:36;11.13;;;9.03;;
10550;SDS011;5324;50.684;3.862;2022-11-14T03:26:03;11.20;;;9.27;;
10550;SDS011;5324;50.684;3.862;2022-11-14T03:28:29;11.63;;;9.50;;
10550;SDS011;5324;50.684;3.862;2022-11-14T03:30:55;12.83;;;9.90;;
10550;SDS011;5324;50.684;3.862;2022-11-14T03:33:21;12.17;;;9.83;;
10550;SDS011;5324;50.684;3.862;2022-11-14T03:35:50;13.07;;;9.50;;
10550;SDS011;5324;50.684;3.862;2022-11-14T03:38:17;11.60;;;10.10;;
10550;SDS011;5324;50.684;3.862;2022-11-14T03:40:43;12.57;;;9.93;;
10550;SDS011;5324;50.684;3.862;2022-11-14T03:43:09;13.90;;;9.20;;
10550;SDS011;5324;50.684;3.862;2022-11-14T03:45:35;12.00;;;9.27;;
10550;SDS011;5324;50.684;3.862;2022-11-14T03:48:02;13.33;;;10.53;;
10550;SDS011;5324;50.684;3.862;2022-11-14T03:50:28;14.50;;;9.43;;
10550;SDS011;5324;50.684;3.862;2022-11-14T03:52:54;10.43;;;9.20;;
10550;SDS011;5324;50.684;3.862;2022-11-14T03:55:20;13.27;;;8.67;;
10550;SDS011;5324;50.684;3.862;2022-11-14T03:57:46;11.37;;;9.10;;
10550;SDS011;5324;50.684;3.862;2022-11-14T04:00:12;12.33;;;9.20;;
10550;SDS011;5324;50.684;3.862;2022-11-14T04:02:38;11.07;;;8.73;;
10550;SDS011;5324;50.684;3.862;2022-11-14T04:05:04;9.97;;;8.60;;
10550;SDS011;5324;50.684;3.862;2022-11-14T04:07:30;10.43;;;8.87;;
10550;SDS011;5324;50.684;3.862;2022-11-14T04:09:56;11.13;;;9.13;;
10550;SDS011;5324;50.684;3.862;2022-11-14T04:12:22;9.20;;;7.93;;
10550;SDS011;5324;50.684;3.862;2022-11-14T04:14:48;12.10;;;8.97;;
10550;SDS011;5324;50.684;3.862;2022-11-14T04:17:14;10.03;;;8.63;;
10550;SDS011;5324;50.684;3.862;2022-11-14T04:19:40;10.03;;;8.57;;
10550;SDS011;5324;50.684;3.862;2022-11-14T04:22:06;9.70;;;8.60;;
10550;SDS011;5324;50.684;3.862;2022-11-14T04:24:32;11.33;;;8.73;;
10550;SDS011;5324;50.684;3.862;2022-11-14T04:26:58;10.20;;;8.53;;
10550;SDS011;5324;50.684;3.862;2022-11-14T04:29:24;9.73;;;8.47;;
10550;SDS011;5324;50.684;3.862;2022-11-14T04:31:50;10.40;;;8.47;;
10550;SDS011;5324;50.684;3.862;2022-11-14T04:34:16;9.70;;;8.70;;
10550;SDS011;5324;50.684;3.862;2022-11-14T04:36:42;10.40;;;8.50;;
10550;SDS011;5324;50.684;3.862;2022-11-14T04:39:08;10.70;;;8.40;;
10550;SDS011;5324;50.684;3.862;2022-11-14T04:41:34;10.20;;;8.37;;
10550;SDS011;5324;50.684;3.862;2022-11-14T04:44:00;9.20;;;7.77;;
10550;SDS011;5324;50.684;3.862;2022-11-14T04:46:26;10.37;;;8.77;;
10550;SDS011;5324;50.684;3.862;2022-11-14T04:48:52;9.53;;;7.97;;
10550;SDS011;5324;50.684;3.862;2022-11-14T04:51:18;9.50;;;8.47;;
10550;SDS011;5324;50.684;3.862;2022-11-14T04:53:44;9.00;;;8.03;;
10550;SDS011;5324;50.684;3.862;2022-11-14T04:56:10;10.37;;;8.17;;
10550;SDS011;5324;50.684;3.862;2022-11-14T04:58:36;9.43;;;8.40;;
10550;SDS011;5324;50.684;3.862;2022-11-14T05:01:06;8.70;;;7.37;;
10550;SDS011;5324;50.684;3.862;2022-11-14T05:03:32;12.10;;;9.40;;
10550;SDS011;5324;50.684;3.862;2022-11-14T05:06:01;9.50;;;8.50;;
10550;SDS011;5324;50.684;3.862;2022-11-14T05:08:28;10.57;;;8.70;;
10550;SDS011;5324;50.684;3.862;2022-11-14T05:10:54;11.80;;;9.07;;
10550;SDS011;5324;50.684;3.862;2022-11-14T05:13:20;10.97;;;8.00;;
10550;SDS011;5324;50.684;3.862;2022-11-14T05:15:46;11.10;;;8.73;;
10550;SDS011;5324;50.684;3.862;2022-11-14T05:18:12;15.23;;;7.97;;
10550;SDS011;5324;50.684;3.862;2022-11-14T05:20:38;11.30;;;7.80;;
10550;SDS011;5324;50.684;3.862;2022-11-14T05:23:04;13.70;;;8.77;;
10550;SDS011;5324;50.684;3.862;2022-11-14T05:25:30;12.27;;;8.47;;
10550;SDS011;5324;50.684;3.862;2022-11-14T05:27:56;12.03;;;8.37;;
10550;SDS011;5324;50.684;3.862;2022-11-14T05:30:22;11.27;;;9.03;;
10550;SDS011;5324;50.684;3.862;2022-11-14T05:32:49;10.77;;;8.03;;
10550;SDS011;5324;50.684;3.862;2022-11-14T05:35:16;11.53;;;8.43;;
10550;SDS011;5324;50.684;3.862;2022-11-14T05:37:42;12.57;;;8.10;;
10550;SDS011;5324;50.684;3.862;2022-11-14T05:40:08;9.93;;;8.10;;
10550;SDS011;5324;50.684;3.862;2022-11-14T05:42:34;11.97;;;9.07;;
10550;SDS011;5324;50.684;3.862;2022-11-14T05:45:00;11.67;;;9.37;;
10550;SDS011;5324;50.684;3.862;2022-11-14T05:47:26;11.63;;;8.97;;
10550;SDS011;5324;50.684;3.862;2022-11-14T05:49:52;13.00;;;9.83;;
10550;SDS011;5324;50.684;3.862;2022-11-14T05:52:18;10.07;;;8.13;;
10550;SDS011;5324;50.684;3.862;2022-11-14T05:54:44;11.07;;;8.43;;
10550;SDS011;5324;50.684;3.862;2022-11-14T05:57:10;8.30;;;7.37;;
10550;SDS011;5324;50.684;3.862;2022-11-14T05:59:36;8.53;;;7.30;;
10550;SDS011;5324;50.684;3.862;2022-11-14T06:02:02;8.97;;;7.50;;
10550;SDS011;5324;50.684;3.862;2022-11-14T06:04:28;7.83;;;6.83;;
10550;SDS011;5324;50.684;3.862;2022-11-14T06:06:54;9.87;;;8.33;;
10550;SDS011;5324;50.684;3.862;2022-11-14T06:09:20;8.87;;;7.67;;
10550;SDS011;5324;50.684;3.862;2022-11-14T06:11:46;9.87;;;7.73;;
10550;SDS011;5324;50.684;3.862;2022-11-14T06:14:12;8.83;;;7.77;;
10550;SDS011;5324;50.684;3.862;2022-11-14T06:16:38;9.30;;;7.57;;
10550;SDS011;5324;50.684;3.862;2022-11-14T06:19:04;10.50;;;7.77;;
10550;SDS011;5324;50.684;3.862;2022-11-14T06:21:30;9.37;;;8.00;;
10550;SDS011;5324;50.684;3.862;2022-11-14T06:23:56;9.33;;;7.57;;
10550;SDS011;5324;50.684;3.862;2022-11-14T06:26:23;10.20;;;8.30;;
10550;SDS011;5324;50.684;3.862;2022-11-14T06:28:49;16.33;;;8.17;;
10550;SDS011;5324;50.684;3.862;2022-11-14T06:31:16;11.77;;;7.80;;
10550;SDS011;5324;50.684;3.862;2022-11-14T06:33:42;8.63;;;7.57;;
10550;SDS011;5324;50.684;3.862;2022-11-14T06:36:08;10.93;;;8.57;;
10550;SDS011;5324;50.684;3.862;2022-11-14T06:38:35;11.07;;;8.57;;
10550;SDS011;5324;50.684;3.862;2022-11-14T06:43:27;12.37;;;7.90;;
10550;SDS011;5324;50.684;3.862;2022-11-14T06:45:53;11.33;;;8.57;;
10550;SDS011;5324;50.684;3.862;2022-11-14T06:48:19;10.47;;;7.97;;
10550;SDS011;5324;50.684;3.862;2022-11-14T06:50:52;12.70;;;9.20;;
10550;SDS011;5324;50.684;3.862;2022-11-14T06:53:18;16.37;;;9.97;;
10550;SDS011;5324;50.684;3.862;2022-11-14T06:55:54;11.70;;;9.50;;
10550;SDS011;5324;50.684;3.862;2022-11-14T06:58:20;11.03;;;9.07;;
10550;SDS011;5324;50.684;3.862;2022-11-14T07:00:46;12.43;;;8.80;;
10550;SDS011;5324;50.684;3.862;2022-11-14T07:03:12;11.10;;;8.40;;
10550;SDS011;5324;50.684;3.862;2022-11-14T07:05:38;10.63;;;8.63;;
10550;SDS011;5324;50.684;3.862;2022-11-14T07:08:04;9.87;;;8.67;;
10550;SDS011;5324;50.684;3.862;2022-11-14T07:10:30;10.27;;;8.87;;
10550;SDS011;5324;50.684;3.862;2022-11-14T07:12:56;11.93;;;8.77;;
10550;SDS011;5324;50.684;3.862;2022-11-14T07:15:22;12.70;;;9.53;;
10550;SDS011;5324;50.684;3.862;2022-11-14T07:17:48;16.87;;;9.93;;
10550;SDS011;5324;50.684;3.862;2022-11-14T07:20:14;13.87;;;9.50;;
10550;SDS011;5324;50.684;3.862;2022-11-14T07:22:44;11.17;;;8.97;;
10550;SDS011;5324;50.684;3.862;2022-11-14T07:25:10;10.13;;;9.03;;
10550;SDS011;5324;50.684;3.862;2022-11-14T07:27:36;9.97;;;8.40;;
10550;SDS011;5324;50.684;3.862;2022-11-14T07:30:02;12.13;;;9.43;;
10550;SDS011;5324;50.684;3.862;2022-11-14T07:32:29;11.50;;;9.10;;
10550;SDS011;5324;50.684;3.862;2022-11-14T07:34:55;14.67;;;9.60;;
10550;SDS011;5324;50.684;3.862;2022-11-14T07:37:21;12.03;;;9.20;;
10550;SDS011;5324;50.684;3.862;2022-11-14T07:39:47;12.90;;;9.80;;
10550;SDS011;5324;50.684;3.862;2022-11-14T07:42:13;11.93;;;9.30;;
10550;SDS011;5324;50.684;3.862;2022-11-14T07:44:39;12.40;;;9.47;;
10550;SDS011;5324;50.684;3.862;2022-11-14T07:47:05;10.27;;;8.63;;
10550;SDS011;5324;50.684;3.862;2022-11-14T07:49:31;11.57;;;9.73;;
10550;SDS011;5324;50.684;3.862;2022-11-14T07:51:58;12.63;;;10.63;;
10550;SDS011;5324;50.684;3.862;2022-11-14T07:54:24;15.07;;;10.67;;
10550;SDS011;5324;50.684;3.862;2022-11-14T07:56:50;17.97;;;11.93;;
10550;SDS011;5324;50.684;3.862;2022-11-14T07:59:16;20.97;;;13.87;;
10550;SDS011;5324;50.684;3.862;2022-11-14T08:01:42;27.27;;;15.43;;
10550;SDS011;5324;50.684;3.862;2022-11-14T08:04:08;27.07;;;17.10;;
10550;SDS011;5324;50.684;3.862;2022-11-14T08:06:34;23.87;;;15.90;;
10550;SDS011;5324;50.684;3.862;2022-11-14T08:09:00;19.97;;;13.37;;
10550;SDS011;5324;50.684;3.862;2022-11-14T08:11:26;22.63;;;12.03;;
10550;SDS011;5324;50.684;3.862;2022-11-14T08:14:11;16.97;;;11.80;;
10550;SDS011;5324;50.684;3.862;2022-11-14T08:16:37;16.33;;;10.37;;
10550;SDS011;5324;50.684;3.862;2022-11-14T08:19:03;13.63;;;9.27;;
10550;SDS011;5324;50.684;3.862;2022-11-14T08:21:29;12.90;;;9.93;;
10550;SDS011;5324;50.684;3.862;2022-11-14T08:23:55;15.67;;;9.60;;
10550;SDS011;5324;50.684;3.862;2022-11-14T08:26:21;14.30;;;10.90;;
10550;SDS011;5324;50.684;3.862;2022-11-14T08:28:50;16.93;;;11.27;;
10550;SDS011;5324;50.684;3.862;2022-11-14T08:31:16;18.13;;;11.63;;
10550;SDS011;5324;50.684;3.862;2022-11-14T08:33:42;14.47;;;9.93;;
10550;SDS011;5324;50.684;3.862;2022-11-14T08:36:09;19.23;;;9.10;;
10550;SDS011;5324;50.684;3.862;2022-11-14T08:38:35;22.57;;;10.10;;
10550;SDS011;5324;50.684;3.862;2022-11-14T08:41:02;16.30;;;9.57;;
10550;SDS011;5324;50.684;3.862;2022-11-14T08:43:28;18.97;;;10.93;;
10550;SDS011;5324;50.684;3.862;2022-11-14T08:45:58;23.77;;;12.40;;
10550;SDS011;5324;50.684;3.862;2022-11-14T08:48:24;24.53;;;11.83;;
10550;SDS011;5324;50.684;3.862;2022-11-14T08:50:50;17.97;;;10.40;;
10550;SDS011;5324;50.684;3.862;2022-11-14T08:53:16;16.93;;;9.30;;
10550;SDS011;5324;50.684;3.862;2022-11-14T08:55:43;13.33;;;9.87;;
10550;SDS011;5324;50.684;3.862;2022-11-14T08:58:09;20.80;;;10.80;;
10550;SDS011;5324;50.684;3.862;2022-11-14T09:00:35;26.87;;;10.40;;
10550;SDS011;5324;50.684;3.862;2022-11-14T09:03:10;16.70;;;9.07;;
10550;SDS011;5324;50.684;3.862;2022-11-14T09:05:40;11.70;;;8.90;;
10550;SDS011;5324;50.684;3.862;2022-11-14T09:08:06;15.10;;;11.10;;
10550;SDS011;5324;50.684;3.862;2022-11-14T09:10:32;27.20;;;14.90;;
10550;SDS011;5324;50.684;3.862;2022-11-14T09:12:59;21.73;;;12.53;;
10550;SDS011;5324;50.684;3.862;2022-11-14T09:15:26;15.43;;;11.80;;
10550;SDS011;5324;50.684;3.862;2022-11-14T09:17:52;19.10;;;11.43;;
10550;SDS011;5324;50.684;3.862;2022-11-14T09:20:19;19.57;;;10.23;;
10550;SDS011;5324;50.684;3.862;2022-11-14T09:22:45;16.10;;;11.10;;
10550;SDS011;5324;50.684;3.862;2022-11-14T09:25:11;20.37;;;12.33;;
10550;SDS011;5324;50.684;3.862;2022-11-14T09:27:37;18.77;;;12.23;;
10550;SDS011;5324;50.684;3.862;2022-11-14T09:30:04;18.83;;;12.50;;
10550;SDS011;5324;50.684;3.862;2022-11-14T09:32:30;19.23;;;11.80;;
10550;SDS011;5324;50.684;3.862;2022-11-14T09:34:56;16.53;;;10.93;;
10550;SDS011;5324;50.684;3.862;2022-11-14T09:37:22;20.97;;;9.20;;
10550;SDS011;5324;50.684;3.862;2022-11-14T09:39:48;16.67;;;8.33;;
10550;SDS011;5324;50.684;3.862;2022-11-14T09:44:53;12.37;;;9.07;;
10550;SDS011;5324;50.684;3.862;2022-11-14T09:47:30;13.83;;;9.80;;
10550;SDS011;5324;50.684;3.862;2022-11-14T09:50:03;13.23;;;8.50;;
10550;SDS011;5324;50.684;3.862;2022-11-14T09:55:00;9.77;;;7.93;;
10550;SDS011;5324;50.684;3.862;2022-11-14T09:57:27;11.50;;;8.77;;
10550;SDS011;5324;50.684;3.862;2022-11-14T09:59:53;16.30;;;10.03;;
10550;SDS011;5324;50.684;3.862;2022-11-14T10:02:26;12.93;;;9.53;;
10550;SDS011;5324;50.684;3.862;2022-11-14T10:05:02;12.77;;;8.73;;
10550;SDS011;5324;50.684;3.862;2022-11-14T10:15:42;12.83;;;8.70;;
10550;SDS011;5324;50.684;3.862;2022-11-14T10:26:11;13.30;;;9.20;;
10550;SDS011;5324;50.684;3.862;2022-11-14T10:34:20;14.00;;;10.03;;
10550;SDS011;5324;50.684;3.862;2022-11-14T10:39:28;14.97;;;9.57;;
10550;SDS011;5324;50.684;3.862;2022-11-14T10:41:56;15.00;;;10.40;;
10550;SDS011;5324;50.684;3.862;2022-11-14T10:44:47;15.43;;;10.63;;
10550;SDS011;5324;50.684;3.862;2022-11-14T10:47:11;18.97;;;10.57;;
10550;SDS011;5324;50.684;3.862;2022-11-14T10:49:39;15.23;;;10.03;;
10550;SDS011;5324;50.684;3.862;2022-11-14T10:52:08;15.07;;;10.23;;
10550;SDS011;5324;50.684;3.862;2022-11-14T10:54:39;14.97;;;10.00;;
10550;SDS011;5324;50.684;3.862;2022-11-14T10:57:17;13.93;;;9.93;;
10550;SDS011;5324;50.684;3.862;2022-11-14T10:59:43;13.43;;;10.33;;
10550;SDS011;5324;50.684;3.862;2022-11-14T11:02:09;17.43;;;10.33;;
10550;SDS011;5324;50.684;3.862;2022-11-14T11:04:36;14.47;;;10.10;;
10550;SDS011;5324;50.684;3.862;2022-11-14T11:07:17;13.87;;;9.40;;
10550;SDS011;5324;50.684;3.862;2022-11-14T11:10:02;13.67;;;10.07;;
10550;SDS011;5324;50.684;3.862;2022-11-14T11:12:48;14.03;;;10.70;;
10550;SDS011;5324;50.684;3.862;2022-11-14T11:18:03;14.57;;;10.97;;
10550;SDS011;5324;50.684;3.862;2022-11-14T11:25:29;16.90;;;10.50;;
10550;SDS011;5324;50.684;3.862;2022-11-14T11:31:02;18.93;;;11.67;;
10550;SDS011;5324;50.684;3.862;2022-11-14T11:33:28;16.20;;;10.70;;
10550;SDS011;5324;50.684;3.862;2022-11-14T11:38:39;16.50;;;11.97;;
10550;SDS011;5324;50.684;3.862;2022-11-14T11:43:46;17.20;;;11.30;;
10550;SDS011;5324;50.684;3.862;2022-11-14T11:49:17;14.10;;;10.37;;
10550;SDS011;5324;50.684;3.862;2022-11-14T11:51:44;14.70;;;10.80;;
10550;SDS011;5324;50.684;3.862;2022-11-14T11:54:35;13.27;;;10.27;;
10550;SDS011;5324;50.684;3.862;2022-11-14T11:56:58;16.40;;;10.70;;
10550;SDS011;5324;50.684;3.862;2022-11-14T11:59:36;18.00;;;11.40;;
10550;SDS011;5324;50.684;3.862;2022-11-14T12:02:13;15.90;;;10.97;;
10550;SDS011;5324;50.684;3.862;2022-11-14T12:04:42;16.53;;;11.43;;
10550;SDS011;5324;50.684;3.862;2022-11-14T12:07:12;15.50;;;11.30;;
10550;SDS011;5324;50.684;3.862;2022-11-14T12:09:39;15.40;;;11.00;;
10550;SDS011;5324;50.684;3.862;2022-11-14T12:12:09;15.53;;;11.40;;
10550;SDS011;5324;50.684;3.862;2022-11-14T12:30:07;17.30;;;11.50;;
10550;SDS011;5324;50.684;3.862;2022-11-14T12:35:23;16.70;;;11.43;;
10550;SDS011;5324;50.684;3.862;2022-11-14T12:37:50;16.43;;;12.13;;
10550;SDS011;5324;50.684;3.862;2022-11-14T12:40:20;16.40;;;11.23;;
10550;SDS011;5324;50.684;3.862;2022-11-14T12:42:48;17.83;;;12.00;;
10550;SDS011;5324;50.684;3.862;2022-11-14T12:50:43;15.07;;;11.40;;
10550;SDS011;5324;50.684;3.862;2022-11-14T13:09:08;17.30;;;11.23;;
10550;SDS011;5324;50.684;3.862;2022-11-14T13:11:40;13.57;;;10.10;;
10550;SDS011;5324;50.684;3.862;2022-11-14T13:14:25;12.87;;;10.10;;
10550;SDS011;5324;50.684;3.862;2022-11-14T13:20:06;14.13;;;9.87;;
10550;SDS011;5324;50.684;3.862;2022-11-14T13:31:04;16.70;;;10.93;;
10550;SDS011;5324;50.684;3.862;2022-11-14T13:36:34;12.83;;;10.20;;
10550;SDS011;5324;50.684;3.862;2022-11-14T13:39:12;13.93;;;9.50;;
10550;SDS011;5324;50.684;3.862;2022-11-14T13:52:16;14.30;;;9.53;;
10550;SDS011;5324;50.684;3.862;2022-11-14T13:54:46;16.03;;;10.43;;
10550;SDS011;5324;50.684;3.862;2022-11-14T13:57:14;16.53;;;10.50;;
10550;SDS011;5324;50.684;3.862;2022-11-14T14:08:11;13.17;;;9.07;;
10550;SDS011;5324;50.684;3.862;2022-11-14T14:10:30;15.50;;;10.27;;
10550;SDS011;5324;50.684;3.862;2022-11-14T14:18:10;17.57;;;10.27;;
10550;SDS011;5324;50.684;3.862;2022-11-14T14:20:44;15.23;;;9.60;;
10550;SDS011;5324;50.684;3.862;2022-11-14T14:25:45;14.33;;;9.40;;
10550;SDS011;5324;50.684;3.862;2022-11-14T14:31:16;13.73;;;9.10;;
10550;SDS011;5324;50.684;3.862;2022-11-14T14:33:49;13.27;;;8.27;;
10550;SDS011;5324;50.684;3.862;2022-11-14T14:36:26;13.43;;;8.30;;
10550;SDS011;5324;50.684;3.862;2022-11-14T14:41:57;13.27;;;9.30;;
10550;SDS011;5324;50.684;3.862;2022-11-14T14:46:49;14.77;;;9.27;;
10550;SDS011;5324;50.684;3.862;2022-11-14T14:49:33;14.70;;;9.93;;
10550;SDS011;5324;50.684;3.862;2022-11-14T14:51:59;13.97;;;9.27;;
10550;SDS011;5324;50.684;3.862;2022-11-14T14:54:26;13.20;;;9.13;;
10550;SDS011;5324;50.684;3.862;2022-11-14T14:56:59;14.27;;;9.53;;
10550;SDS011;5324;50.684;3.862;2022-11-14T14:59:27;13.27;;;9.37;;
10550;SDS011;5324;50.684;3.862;2022-11-14T15:01:54;14.03;;;9.13;;
10550;SDS011;5324;50.684;3.862;2022-11-14T15:04:22;15.40;;;10.03;;
10550;SDS011;5324;50.684;3.862;2022-11-14T15:06:49;17.10;;;10.17;;
10550;SDS011;5324;50.684;3.862;2022-11-14T15:09:19;14.37;;;10.00;;
10550;SDS011;5324;50.684;3.862;2022-11-14T15:11:49;13.43;;;9.07;;
10550;SDS011;5324;50.684;3.862;2022-11-14T15:14:20;13.73;;;9.43;;
10550;SDS011;5324;50.684;3.862;2022-11-14T15:16:47;13.77;;;9.47;;
10550;SDS011;5324;50.684;3.862;2022-11-14T15:19:16;15.43;;;9.80;;
10550;SDS011;5324;50.684;3.862;2022-11-14T15:21:42;16.83;;;10.57;;
10550;SDS011;5324;50.684;3.862;2022-11-14T15:26:35;17.67;;;10.67;;
10550;SDS011;5324;50.684;3.862;2022-11-14T15:31:56;14.90;;;9.70;;
10550;SDS011;5324;50.684;3.862;2022-11-14T15:34:26;15.20;;;9.93;;
10550;SDS011;5324;50.684;3.862;2022-11-14T15:39:38;15.27;;;9.60;;
10550;SDS011;5324;50.684;3.862;2022-11-14T15:42:11;14.60;;;10.03;;
10550;SDS011;5324;50.684;3.862;2022-11-14T15:44:37;13.07;;;9.40;;
10550;SDS011;5324;50.684;3.862;2022-11-14T15:47:08;14.57;;;9.93;;
10550;SDS011;5324;50.684;3.862;2022-11-14T15:49:35;16.10;;;10.07;;
10550;SDS011;5324;50.684;3.862;2022-11-14T15:52:02;20.23;;;10.13;;
10550;SDS011;5324;50.684;3.862;2022-11-14T15:54:30;15.93;;;9.80;;
10550;SDS011;5324;50.684;3.862;2022-11-14T15:57:18;14.00;;;8.97;;
10550;SDS011;5324;50.684;3.862;2022-11-14T15:59:43;15.57;;;9.43;;
10550;SDS011;5324;50.684;3.862;2022-11-14T16:02:16;16.77;;;10.37;;
10550;SDS011;5324;50.684;3.862;2022-11-14T16:04:42;18.10;;;10.17;;
10550;SDS011;5324;50.684;3.862;2022-11-14T16:07:12;14.00;;;9.53;;
10550;SDS011;5324;50.684;3.862;2022-11-14T16:09:38;13.93;;;9.53;;
10550;SDS011;5324;50.684;3.862;2022-11-14T16:12:05;16.37;;;9.73;;
10550;SDS011;5324;50.684;3.862;2022-11-14T16:14:31;15.70;;;9.80;;
10550;SDS011;5324;50.684;3.862;2022-11-14T16:16:57;16.50;;;9.67;;
10550;SDS011;5324;50.684;3.862;2022-11-14T16:19:23;15.63;;;9.37;;
10550;SDS011;5324;50.684;3.862;2022-11-14T16:21:49;13.87;;;9.60;;
10550;SDS011;5324;50.684;3.862;2022-11-14T16:24:16;19.63;;;10.70;;
10550;SDS011;5324;50.684;3.862;2022-11-14T16:26:43;16.87;;;10.67;;
10550;SDS011;5324;50.684;3.862;2022-11-14T16:29:09;15.50;;;10.07;;
10550;SDS011;5324;50.684;3.862;2022-11-14T16:31:35;14.80;;;10.00;;
10550;SDS011;5324;50.684;3.862;2022-11-14T16:34:01;15.37;;;10.07;;
10550;SDS011;5324;50.684;3.862;2022-11-14T16:36:27;16.00;;;9.57;;
10550;SDS011;5324;50.684;3.862;2022-11-14T16:39:00;17.53;;;10.67;;
10550;SDS011;5324;50.684;3.862;2022-11-14T16:41:26;16.70;;;10.30;;
10550;SDS011;5324;50.684;3.862;2022-11-14T16:43:53;17.70;;;10.53;;
10550;SDS011;5324;50.684;3.862;2022-11-14T16:46:19;17.30;;;11.33;;
10550;SDS011;5324;50.684;3.862;2022-11-14T16:48:45;20.27;;;11.30;;
10550;SDS011;5324;50.684;3.862;2022-11-14T16:51:11;16.83;;;11.37;;
10550;SDS011;5324;50.684;3.862;2022-11-14T16:53:38;18.33;;;11.57;;
10550;SDS011;5324;50.684;3.862;2022-11-14T16:56:04;20.97;;;12.47;;
10550;SDS011;5324;50.684;3.862;2022-11-14T16:58:30;21.03;;;12.00;;
10550;SDS011;5324;50.684;3.862;2022-11-14T17:00:56;19.33;;;11.67;;
10550;SDS011;5324;50.684;3.862;2022-11-14T17:03:22;19.33;;;11.63;;
10550;SDS011;5324;50.684;3.862;2022-11-14T17:05:51;25.30;;;13.63;;
10550;SDS011;5324;50.684;3.862;2022-11-14T17:08:17;22.07;;;13.53;;
10550;SDS011;5324;50.684;3.862;2022-11-14T17:10:43;25.77;;;14.33;;
10550;SDS011;5324;50.684;3.862;2022-11-14T17:13:10;24.73;;;14.73;;
10550;SDS011;5324;50.684;3.862;2022-11-14T17:15:36;25.67;;;14.50;;
10550;SDS011;5324;50.684;3.862;2022-11-14T17:18:03;26.90;;;14.93;;